Keavy, Kentucky
Current Conditions -  °F | °C
As of 2:53 PM on Friday 19 Dec 2014 (Local Time) from KLOZ Reporting Station
Clear Clear  
Wind Chill: 37°   Ceiling: Unl
Heat Index: 40°   Visibility: 10mi
Dew Point: 25°   Wind: 5mph
Humidity: 55%   Direction: 320°NW
Pressure: 30.18"   Gusts: NA
Location:  37°N, 84.16°W
Report Text: KLOZ 191953Z AUTO 32004KT 10SM CLR 04/M04 A3018 RMK AO2 SLP227 T00441039
Loading
Personal Weather Stations






























Interactive Weather Map New forecast layout! Learn more

10-Day Weather Forecast

Advertisements
Track Severe Weather on mobile